sensor_id;sensor_type;location;lat;lon;timestamp;temperature;humidity
25352;DHT22;13304;48.464;8.712;2023-08-12T00:00:56;23.10;72.40
25352;DHT22;13304;48.464;8.712;2023-08-12T00:03:22;23.00;72.40
25352;DHT22;13304;48.464;8.712;2023-08-12T00:05:50;23.00;72.50
25352;DHT22;13304;48.464;8.712;2023-08-12T00:08:16;23.00;72.70
25352;DHT22;13304;48.464;8.712;2023-08-12T00:10:41;23.00;72.80
25352;DHT22;13304;48.464;8.712;2023-08-12T00:13:07;23.00;72.70
25352;DHT22;13304;48.464;8.712;2023-08-12T00:15:33;23.00;72.80
25352;DHT22;13304;48.464;8.712;2023-08-12T00:17:58;22.90;72.90
25352;DHT22;13304;48.464;8.712;2023-08-12T00:20:26;22.90;73.00
25352;DHT22;13304;48.464;8.712;2023-08-12T00:22:52;22.90;73.30
25352;DHT22;13304;48.464;8.712;2023-08-12T00:25:18;22.80;73.20
25352;DHT22;13304;48.464;8.712;2023-08-12T00:27:44;22.80;73.20
25352;DHT22;13304;48.464;8.712;2023-08-12T00:30:09;22.70;73.30
25352;DHT22;13304;48.464;8.712;2023-08-12T00:32:35;22.70;73.40
25352;DHT22;13304;48.464;8.712;2023-08-12T00:35:01;22.70;73.30
25352;DHT22;13304;48.464;8.712;2023-08-12T00:37:28;22.60;73.30
25352;DHT22;13304;48.464;8.712;2023-08-12T00:39:54;22.60;73.30
25352;DHT22;13304;48.464;8.712;2023-08-12T00:42:19;22.60;73.80
25352;DHT22;13304;48.464;8.712;2023-08-12T00:44:45;22.60;74.00
25352;DHT22;13304;48.464;8.712;2023-08-12T00:47:11;22.60;74.20
25352;DHT22;13304;48.464;8.712;2023-08-12T00:49:36;22.50;74.60
25352;DHT22;13304;48.464;8.712;2023-08-12T00:52:05;22.50;74.70
25352;DHT22;13304;48.464;8.712;2023-08-12T00:54:34;22.50;74.90
25352;DHT22;13304;48.464;8.712;2023-08-12T00:57:02;22.40;74.80
25352;DHT22;13304;48.464;8.712;2023-08-12T00:59:29;22.40;74.90
25352;DHT22;13304;48.464;8.712;2023-08-12T01:01:54;22.40;74.90
25352;DHT22;13304;48.464;8.712;2023-08-12T01:04:20;22.30;75.10
25352;DHT22;13304;48.464;8.712;2023-08-12T01:06:48;22.30;75.10
25352;DHT22;13304;48.464;8.712;2023-08-12T01:09:14;22.30;75.30
25352;DHT22;13304;48.464;8.712;2023-08-12T01:12:03;22.30;75.30
25352;DHT22;13304;48.464;8.712;2023-08-12T01:14:56;22.20;76.60
25352;DHT22;13304;48.464;8.712;2023-08-12T01:17:25;22.20;75.90
25352;DHT22;13304;48.464;8.712;2023-08-12T01:19:52;22.20;75.60
25352;DHT22;13304;48.464;8.712;2023-08-12T01:22:23;22.20;75.70
25352;DHT22;13304;48.464;8.712;2023-08-12T01:24:51;22.20;76.00
25352;DHT22;13304;48.464;8.712;2023-08-12T01:27:17;22.20;75.90
25352;DHT22;13304;48.464;8.712;2023-08-12T01:29:46;22.20;75.90
25352;DHT22;13304;48.464;8.712;2023-08-12T01:32:37;22.20;76.20
25352;DHT22;13304;48.464;8.712;2023-08-12T01:35:09;22.10;76.30
25352;DHT22;13304;48.464;8.712;2023-08-12T01:37:45;22.20;76.20
25352;DHT22;13304;48.464;8.712;2023-08-12T01:40:11;22.20;76.20
25352;DHT22;13304;48.464;8.712;2023-08-12T01:42:40;22.20;76.00
25352;DHT22;13304;48.464;8.712;2023-08-12T01:45:06;22.20;75.90
25352;DHT22;13304;48.464;8.712;2023-08-12T01:47:32;22.20;76.00
25352;DHT22;13304;48.464;8.712;2023-08-12T01:50:00;22.20;75.90
25352;DHT22;13304;48.464;8.712;2023-08-12T01:52:26;22.20;76.10
25352;DHT22;13304;48.464;8.712;2023-08-12T01:54:54;22.20;76.00
25352;DHT22;13304;48.464;8.712;2023-08-12T01:57:20;22.20;76.10
25352;DHT22;13304;48.464;8.712;2023-08-12T01:59:46;22.20;75.90
25352;DHT22;13304;48.464;8.712;2023-08-12T02:02:12;22.20;75.90
25352;DHT22;13304;48.464;8.712;2023-08-12T02:04:41;22.20;75.90
25352;DHT22;13304;48.464;8.712;2023-08-12T02:07:08;22.20;76.00
25352;DHT22;13304;48.464;8.712;2023-08-12T02:09:34;22.30;75.90
25352;DHT22;13304;48.464;8.712;2023-08-12T02:12:00;22.30;76.10
25352;DHT22;13304;48.464;8.712;2023-08-12T02:14:28;22.30;76.00
25352;DHT22;13304;48.464;8.712;2023-08-12T02:16:53;22.30;76.10
25352;DHT22;13304;48.464;8.712;2023-08-12T02:19:19;22.30;76.10
25352;DHT22;13304;48.464;8.712;2023-08-12T02:21:47;22.30;76.10
25352;DHT22;13304;48.464;8.712;2023-08-12T02:24:15;22.20;76.20
25352;DHT22;13304;48.464;8.712;2023-08-12T02:26:41;22.30;76.10
25352;DHT22;13304;48.464;8.712;2023-08-12T02:29:07;22.20;76.00
25352;DHT22;13304;48.464;8.712;2023-08-12T02:31:32;22.20;76.10
25352;DHT22;13304;48.464;8.712;2023-08-12T02:34:03;22.20;76.10
25352;DHT22;13304;48.464;8.712;2023-08-12T02:36:29;22.20;76.20
25352;DHT22;13304;48.464;8.712;2023-08-12T02:38:55;22.20;76.20
25352;DHT22;13304;48.464;8.712;2023-08-12T02:41:20;22.20;76.20
25352;DHT22;13304;48.464;8.712;2023-08-12T02:43:46;22.20;76.20
25352;DHT22;13304;48.464;8.712;2023-08-12T02:46:14;22.20;76.30
25352;DHT22;13304;48.464;8.712;2023-08-12T02:48:44;22.20;76.20
25352;DHT22;13304;48.464;8.712;2023-08-12T02:51:10;22.20;76.20
25352;DHT22;13304;48.464;8.712;2023-08-12T02:53:38;22.20;76.30
25352;DHT22;13304;48.464;8.712;2023-08-12T02:56:06;22.20;76.30
25352;DHT22;13304;48.464;8.712;2023-08-12T02:58:32;22.20;76.30
25352;DHT22;13304;48.464;8.712;2023-08-12T03:00:57;22.20;76.40
25352;DHT22;13304;48.464;8.712;2023-08-12T03:03:23;22.20;76.40
25352;DHT22;13304;48.464;8.712;2023-08-12T03:05:52;22.20;76.50
25352;DHT22;13304;48.464;8.712;2023-08-12T03:08:17;22.20;76.50
25352;DHT22;13304;48.464;8.712;2023-08-12T03:10:44;22.20;76.50
25352;DHT22;13304;48.464;8.712;2023-08-12T03:13:12;22.20;76.50
25352;DHT22;13304;48.464;8.712;2023-08-12T03:15:41;22.10;76.50
25352;DHT22;13304;48.464;8.712;2023-08-12T03:18:12;22.20;76.40
25352;DHT22;13304;48.464;8.712;2023-08-12T03:20:38;22.20;76.40
25352;DHT22;13304;48.464;8.712;2023-08-12T03:23:04;22.20;76.40
25352;DHT22;13304;48.464;8.712;2023-08-12T03:25:29;22.20;76.50
25352;DHT22;13304;48.464;8.712;2023-08-12T03:27:55;22.20;76.50
25352;DHT22;13304;48.464;8.712;2023-08-12T03:30:21;22.20;76.50
25352;DHT22;13304;48.464;8.712;2023-08-12T03:32:47;22.20;76.60
25352;DHT22;13304;48.464;8.712;2023-08-12T03:35:12;22.20;76.60
25352;DHT22;13304;48.464;8.712;2023-08-12T03:37:38;22.20;76.50
25352;DHT22;13304;48.464;8.712;2023-08-12T03:40:06;22.20;76.60
25352;DHT22;13304;48.464;8.712;2023-08-12T03:42:34;22.20;76.60
25352;DHT22;13304;48.464;8.712;2023-08-12T03:45:00;22.20;76.80
25352;DHT22;13304;48.464;8.712;2023-08-12T03:47:26;22.20;76.80
25352;DHT22;13304;48.464;8.712;2023-08-12T03:49:52;22.20;76.90
25352;DHT22;13304;48.464;8.712;2023-08-12T03:52:18;22.20;76.90
25352;DHT22;13304;48.464;8.712;2023-08-12T03:54:46;22.20;76.90
25352;DHT22;13304;48.464;8.712;2023-08-12T03:57:14;22.20;77.10
25352;DHT22;13304;48.464;8.712;2023-08-12T03:59:40;22.20;77.80
25352;DHT22;13304;48.464;8.712;2023-08-12T04:02:05;22.20;77.10
25352;DHT22;13304;48.464;8.712;2023-08-12T04:04:31;22.10;76.90
25352;DHT22;13304;48.464;8.712;2023-08-12T04:07:00;22.10;77.00
25352;DHT22;13304;48.464;8.712;2023-08-12T04:09:25;22.10;77.10
25352;DHT22;13304;48.464;8.712;2023-08-12T04:11:51;22.10;77.00
25352;DHT22;13304;48.464;8.712;2023-08-12T04:14:19;22.10;77.10
25352;DHT22;13304;48.464;8.712;2023-08-12T04:16:44;22.10;77.00
25352;DHT22;13304;48.464;8.712;2023-08-12T04:19:10;22.10;77.10
25352;DHT22;13304;48.464;8.712;2023-08-12T04:21:36;22.10;77.10
25352;DHT22;13304;48.464;8.712;2023-08-12T04:24:04;22.10;77.10
25352;DHT22;13304;48.464;8.712;2023-08-12T04:26:30;22.10;77.30
25352;DHT22;13304;48.464;8.712;2023-08-12T04:28:58;22.10;77.40
25352;DHT22;13304;48.464;8.712;2023-08-12T04:31:24;22.10;77.30
25352;DHT22;13304;48.464;8.712;2023-08-12T04:33:52;22.10;77.40
25352;DHT22;13304;48.464;8.712;2023-08-12T04:36:20;22.10;77.50
25352;DHT22;13304;48.464;8.712;2023-08-12T04:38:46;22.10;77.60
25352;DHT22;13304;48.464;8.712;2023-08-12T04:41:13;22.10;77.60
25352;DHT22;13304;48.464;8.712;2023-08-12T04:43:38;22.00;77.40
25352;DHT22;13304;48.464;8.712;2023-08-12T04:46:06;22.10;77.90
25352;DHT22;13304;48.464;8.712;2023-08-12T04:48:32;22.10;78.20
25352;DHT22;13304;48.464;8.712;2023-08-12T04:50:58;22.00;78.10
25352;DHT22;13304;48.464;8.712;2023-08-12T04:53:27;22.10;79.20
25352;DHT22;13304;48.464;8.712;2023-08-12T04:55:55;22.10;78.50
25352;DHT22;13304;48.464;8.712;2023-08-12T04:58:21;22.00;78.60
25352;DHT22;13304;48.464;8.712;2023-08-12T05:00:49;22.00;78.60
25352;DHT22;13304;48.464;8.712;2023-08-12T05:03:15;22.00;78.60
25352;DHT22;13304;48.464;8.712;2023-08-12T05:05:44;22.00;78.60
25352;DHT22;13304;48.464;8.712;2023-08-12T05:08:16;22.00;78.80
25352;DHT22;13304;48.464;8.712;2023-08-12T05:10:44;22.10;79.10
25352;DHT22;13304;48.464;8.712;2023-08-12T05:13:12;22.10;79.40
25352;DHT22;13304;48.464;8.712;2023-08-12T05:15:37;22.10;79.70
25352;DHT22;13304;48.464;8.712;2023-08-12T05:18:03;22.10;79.70
25352;DHT22;13304;48.464;8.712;2023-08-12T05:20:29;22.10;79.60
25352;DHT22;13304;48.464;8.712;2023-08-12T05:22:55;22.10;79.60
25352;DHT22;13304;48.464;8.712;2023-08-12T05:25:20;22.20;79.60
25352;DHT22;13304;48.464;8.712;2023-08-12T05:27:46;22.20;79.50
25352;DHT22;13304;48.464;8.712;2023-08-12T05:30:12;22.20;79.50
25352;DHT22;13304;48.464;8.712;2023-08-12T05:32:38;22.20;79.50
25352;DHT22;13304;48.464;8.712;2023-08-12T05:35:04;22.20;79.50
25352;DHT22;13304;48.464;8.712;2023-08-12T05:37:32;22.20;79.60
25352;DHT22;13304;48.464;8.712;2023-08-12T05:40:00;22.20;79.50
25352;DHT22;13304;48.464;8.712;2023-08-12T05:42:27;22.20;79.50
25352;DHT22;13304;48.464;8.712;2023-08-12T05:44:53;22.30;79.60
25352;DHT22;13304;48.464;8.712;2023-08-12T05:47:19;22.30;79.70
25352;DHT22;13304;48.464;8.712;2023-08-12T05:49:44;22.30;79.60
25352;DHT22;13304;48.464;8.712;2023-08-12T05:52:13;22.40;79.60
25352;DHT22;13304;48.464;8.712;2023-08-12T05:54:38;22.40;79.60
25352;DHT22;13304;48.464;8.712;2023-08-12T05:57:06;22.50;79.50
25352;DHT22;13304;48.464;8.712;2023-08-12T05:59:32;22.50;79.30
25352;DHT22;13304;48.464;8.712;2023-08-12T06:01:58;22.50;79.10
25352;DHT22;13304;48.464;8.712;2023-08-12T06:04:23;22.50;79.00
25352;DHT22;13304;48.464;8.712;2023-08-12T06:06:50;22.60;79.00
25352;DHT22;13304;48.464;8.712;2023-08-12T06:09:15;22.60;79.10
25352;DHT22;13304;48.464;8.712;2023-08-12T06:11:41;22.60;79.10
25352;DHT22;13304;48.464;8.712;2023-08-12T06:14:07;22.60;79.10
25352;DHT22;13304;48.464;8.712;2023-08-12T06:16:35;22.60;79.10
25352;DHT22;13304;48.464;8.712;2023-08-12T06:19:01;22.70;79.10
25352;DHT22;13304;48.464;8.712;2023-08-12T06:21:27;22.70;79.00
25352;DHT22;13304;48.464;8.712;2023-08-12T06:23:55;22.70;79.00
25352;DHT22;13304;48.464;8.712;2023-08-12T06:26:23;22.70;78.90
25352;DHT22;13304;48.464;8.712;2023-08-12T06:28:49;22.70;78.70
25352;DHT22;13304;48.464;8.712;2023-08-12T06:31:17;22.80;78.70
25352;DHT22;13304;48.464;8.712;2023-08-12T06:33:42;22.80;78.80
25352;DHT22;13304;48.464;8.712;2023-08-12T06:36:08;22.90;79.00
25352;DHT22;13304;48.464;8.712;2023-08-12T06:38:36;22.90;79.20
25352;DHT22;13304;48.464;8.712;2023-08-12T06:41:02;23.00;79.10
25352;DHT22;13304;48.464;8.712;2023-08-12T06:43:30;23.00;79.10
25352;DHT22;13304;48.464;8.712;2023-08-12T06:45:55;23.10;78.90
25352;DHT22;13304;48.464;8.712;2023-08-12T06:48:21;23.20;78.70
25352;DHT22;13304;48.464;8.712;2023-08-12T06:50:53;23.20;78.40
25352;DHT22;13304;48.464;8.712;2023-08-12T06:53:21;23.20;78.00
25352;DHT22;13304;48.464;8.712;2023-08-12T06:55:46;23.30;77.80
25352;DHT22;13304;48.464;8.712;2023-08-12T06:58:13;23.30;77.90
25352;DHT22;13304;48.464;8.712;2023-08-12T07:00:40;23.40;78.20
25352;DHT22;13304;48.464;8.712;2023-08-12T07:03:06;23.50;78.40
25352;DHT22;13304;48.464;8.712;2023-08-12T07:05:34;23.60;78.70
25352;DHT22;13304;48.464;8.712;2023-08-12T07:08:00;23.60;78.10
25352;DHT22;13304;48.464;8.712;2023-08-12T07:10:29;23.80;77.90
25352;DHT22;13304;48.464;8.712;2023-08-12T07:12:57;23.90;77.50
25352;DHT22;13304;48.464;8.712;2023-08-12T07:15:22;24.00;76.70
25352;DHT22;13304;48.464;8.712;2023-08-12T07:17:48;24.20;76.60
25352;DHT22;13304;48.464;8.712;2023-08-12T07:20:14;24.30;76.30
25352;DHT22;13304;48.464;8.712;2023-08-12T07:22:39;24.40;76.00
25352;DHT22;13304;48.464;8.712;2023-08-12T07:25:05;24.50;74.90
25352;DHT22;13304;48.464;8.712;2023-08-12T07:27:31;24.60;74.40
25352;DHT22;13304;48.464;8.712;2023-08-12T07:29:57;24.70;74.30
25352;DHT22;13304;48.464;8.712;2023-08-12T07:32:23;24.80;73.70
25352;DHT22;13304;48.464;8.712;2023-08-12T07:34:48;24.80;73.40
25352;DHT22;13304;48.464;8.712;2023-08-12T07:37:16;24.90;73.30
25352;DHT22;13304;48.464;8.712;2023-08-12T07:39:42;25.00;73.00
25352;DHT22;13304;48.464;8.712;2023-08-12T07:42:07;25.00;72.50
25352;DHT22;13304;48.464;8.712;2023-08-12T07:44:33;25.10;72.60
25352;DHT22;13304;48.464;8.712;2023-08-12T07:46:59;25.10;72.60
25352;DHT22;13304;48.464;8.712;2023-08-12T07:49:24;25.10;72.30
25352;DHT22;13304;48.464;8.712;2023-08-12T07:51:52;25.10;72.20
25352;DHT22;13304;48.464;8.712;2023-08-12T07:54:18;25.10;72.10
25352;DHT22;13304;48.464;8.712;2023-08-12T07:56:44;25.20;72.00
25352;DHT22;13304;48.464;8.712;2023-08-12T07:59:09;25.20;72.10
25352;DHT22;13304;48.464;8.712;2023-08-12T08:01:35;25.20;71.90
25352;DHT22;13304;48.464;8.712;2023-08-12T08:04:01;25.20;71.80
25352;DHT22;13304;48.464;8.712;2023-08-12T08:06:27;25.30;71.80
25352;DHT22;13304;48.464;8.712;2023-08-12T08:08:56;25.30;72.60
25352;DHT22;13304;48.464;8.712;2023-08-12T08:11:24;25.30;72.50
25352;DHT22;13304;48.464;8.712;2023-08-12T08:13:52;25.30;72.20
25352;DHT22;13304;48.464;8.712;2023-08-12T08:16:17;25.30;72.40
25352;DHT22;13304;48.464;8.712;2023-08-12T08:18:46;25.30;72.60
25352;DHT22;13304;48.464;8.712;2023-08-12T08:21:11;25.40;72.30
25352;DHT22;13304;48.464;8.712;2023-08-12T08:23:37;25.40;72.20
25352;DHT22;13304;48.464;8.712;2023-08-12T08:26:02;25.50;72.10
25352;DHT22;13304;48.464;8.712;2023-08-12T08:28:33;25.60;71.70
25352;DHT22;13304;48.464;8.712;2023-08-12T08:31:02;25.70;71.20
25352;DHT22;13304;48.464;8.712;2023-08-12T08:33:30;25.70;71.30
25352;DHT22;13304;48.464;8.712;2023-08-12T08:35:58;25.80;71.50
25352;DHT22;13304;48.464;8.712;2023-08-12T08:38:26;25.90;71.00
25352;DHT22;13304;48.464;8.712;2023-08-12T08:40:52;25.90;71.10
25352;DHT22;13304;48.464;8.712;2023-08-12T08:43:21;26.10;70.80
25352;DHT22;13304;48.464;8.712;2023-08-12T08:45:53;26.10;70.40
25352;DHT22;13304;48.464;8.712;2023-08-12T08:48:23;26.20;70.10
25352;DHT22;13304;48.464;8.712;2023-08-12T08:50:51;26.30;70.00
25352;DHT22;13304;48.464;8.712;2023-08-12T08:53:19;26.40;69.80
25352;DHT22;13304;48.464;8.712;2023-08-12T08:55:45;26.50;69.80
25352;DHT22;13304;48.464;8.712;2023-08-12T08:58:13;26.60;69.90
25352;DHT22;13304;48.464;8.712;2023-08-12T09:00:42;26.60;69.50
25352;DHT22;13304;48.464;8.712;2023-08-12T09:03:08;26.70;69.20
25352;DHT22;13304;48.464;8.712;2023-08-12T09:05:39;26.70;68.90
25352;DHT22;13304;48.464;8.712;2023-08-12T09:08:07;26.80;68.70
25352;DHT22;13304;48.464;8.712;2023-08-12T09:10:37;26.80;68.20
25352;DHT22;13304;48.464;8.712;2023-08-12T09:13:05;26.90;68.70
25352;DHT22;13304;48.464;8.712;2023-08-12T09:15:31;26.90;68.90
25352;DHT22;13304;48.464;8.712;2023-08-12T09:17:57;26.90;68.40
25352;DHT22;13304;48.464;8.712;2023-08-12T09:20:23;27.00;68.30
25352;DHT22;13304;48.464;8.712;2023-08-12T09:22:56;27.00;68.30
25352;DHT22;13304;48.464;8.712;2023-08-12T09:25:31;27.00;68.00
25352;DHT22;13304;48.464;8.712;2023-08-12T09:28:02;27.10;68.00
25352;DHT22;13304;48.464;8.712;2023-08-12T09:30:31;27.10;67.50
25352;DHT22;13304;48.464;8.712;2023-08-12T09:33:00;27.10;67.70
25352;DHT22;13304;48.464;8.712;2023-08-12T09:35:41;27.10;67.60
25352;DHT22;13304;48.464;8.712;2023-08-12T09:38:12;27.10;67.60
25352;DHT22;13304;48.464;8.712;2023-08-12T09:40:39;27.10;67.60
25352;DHT22;13304;48.464;8.712;2023-08-12T09:43:07;27.10;67.70
25352;DHT22;13304;48.464;8.712;2023-08-12T09:45:35;27.10;67.60
25352;DHT22;13304;48.464;8.712;2023-08-12T09:48:04;27.10;67.60
25352;DHT22;13304;48.464;8.712;2023-08-12T09:50:30;27.10;67.60
25352;DHT22;13304;48.464;8.712;2023-08-12T09:52:56;27.10;67.70
25352;DHT22;13304;48.464;8.712;2023-08-12T09:55:25;27.10;67.80
25352;DHT22;13304;48.464;8.712;2023-08-12T09:57:52;27.10;68.00
25352;DHT22;13304;48.464;8.712;2023-08-12T10:00:19;27.10;67.90
25352;DHT22;13304;48.464;8.712;2023-08-12T10:02:50;27.10;68.20
25352;DHT22;13304;48.464;8.712;2023-08-12T10:05:28;27.10;68.10
25352;DHT22;13304;48.464;8.712;2023-08-12T10:07:55;27.00;67.80
25352;DHT22;13304;48.464;8.712;2023-08-12T10:10:23;27.10;68.40
25352;DHT22;13304;48.464;8.712;2023-08-12T10:12:49;27.00;68.30
25352;DHT22;13304;48.464;8.712;2023-08-12T10:15:15;27.10;68.80
25352;DHT22;13304;48.464;8.712;2023-08-12T10:17:41;27.00;69.00
25352;DHT22;13304;48.464;8.712;2023-08-12T10:20:22;27.00;68.80
25352;DHT22;13304;48.464;8.712;2023-08-12T10:22:53;27.00;68.70
25352;DHT22;13304;48.464;8.712;2023-08-12T10:25:20;27.10;68.90
25352;DHT22;13304;48.464;8.712;2023-08-12T10:27:51;27.10;69.00
25352;DHT22;13304;48.464;8.712;2023-08-12T10:30:16;27.20;69.10
25352;DHT22;13304;48.464;8.712;2023-08-12T10:32:45;27.20;68.90
25352;DHT22;13304;48.464;8.712;2023-08-12T10:35:11;27.30;68.90
25352;DHT22;13304;48.464;8.712;2023-08-12T10:37:38;27.40;68.70
25352;DHT22;13304;48.464;8.712;2023-08-12T10:40:07;27.50;68.20
25352;DHT22;13304;48.464;8.712;2023-08-12T10:42:49;27.50;68.10
25352;DHT22;13304;48.464;8.712;2023-08-12T10:45:18;27.60;68.00
25352;DHT22;13304;48.464;8.712;2023-08-12T10:50:34;27.80;65.50
25352;DHT22;13304;48.464;8.712;2023-08-12T10:53:24;27.90;64.90
25352;DHT22;13304;48.464;8.712;2023-08-12T10:55:58;28.00;63.90
25352;DHT22;13304;48.464;8.712;2023-08-12T10:58:36;28.10;65.00
25352;DHT22;13304;48.464;8.712;2023-08-12T11:01:13;28.10;62.80
25352;DHT22;13304;48.464;8.712;2023-08-12T11:03:48;28.20;62.90
25352;DHT22;13304;48.464;8.712;2023-08-12T11:06:13;28.30;62.40
25352;DHT22;13304;48.464;8.712;2023-08-12T11:08:58;28.50;62.60
25352;DHT22;13304;48.464;8.712;2023-08-12T11:11:26;28.50;61.00
25352;DHT22;13304;48.464;8.712;2023-08-12T11:13:54;28.60;61.10
25352;DHT22;13304;48.464;8.712;2023-08-12T11:16:40;28.70;61.40
25352;DHT22;13304;48.464;8.712;2023-08-12T11:19:08;28.70;59.00
25352;DHT22;13304;48.464;8.712;2023-08-12T11:21:36;28.80;60.30
25352;DHT22;13304;48.464;8.712;2023-08-12T11:24:02;28.90;59.70
25352;DHT22;13304;48.464;8.712;2023-08-12T11:26:28;29.00;60.10
25352;DHT22;13304;48.464;8.712;2023-08-12T11:28:54;29.00;59.90
25352;DHT22;13304;48.464;8.712;2023-08-12T11:31:21;29.10;59.80
25352;DHT22;13304;48.464;8.712;2023-08-12T11:33:48;29.20;59.60
25352;DHT22;13304;48.464;8.712;2023-08-12T11:36:14;29.30;59.50
25352;DHT22;13304;48.464;8.712;2023-08-12T11:38:42;29.40;59.30
25352;DHT22;13304;48.464;8.712;2023-08-12T11:41:09;29.40;59.00
25352;DHT22;13304;48.464;8.712;2023-08-12T11:43:35;29.40;59.00
25352;DHT22;13304;48.464;8.712;2023-08-12T11:46:01;29.40;59.00
25352;DHT22;13304;48.464;8.712;2023-08-12T11:48:32;29.40;59.30
25352;DHT22;13304;48.464;8.712;2023-08-12T11:51:00;29.40;58.90
25352;DHT22;13304;48.464;8.712;2023-08-12T11:53:26;29.40;58.20
25352;DHT22;13304;48.464;8.712;2023-08-12T11:55:52;29.40;58.00
25352;DHT22;13304;48.464;8.712;2023-08-12T11:58:18;29.30;57.20
25352;DHT22;13304;48.464;8.712;2023-08-12T12:00:51;29.30;57.20
25352;DHT22;13304;48.464;8.712;2023-08-12T12:03:19;29.30;57.20
25352;DHT22;13304;48.464;8.712;2023-08-12T12:05:47;29.20;57.40
25352;DHT22;13304;48.464;8.712;2023-08-12T12:08:14;29.20;58.20
25352;DHT22;13304;48.464;8.712;2023-08-12T12:10:40;29.10;57.50
25352;DHT22;13304;48.464;8.712;2023-08-12T12:13:06;29.00;57.60
25352;DHT22;13304;48.464;8.712;2023-08-12T12:15:47;28.90;61.40
25352;DHT22;13304;48.464;8.712;2023-08-12T12:18:13;28.60;64.30
25352;DHT22;13304;48.464;8.712;2023-08-12T12:20:56;28.40;62.60
25352;DHT22;13304;48.464;8.712;2023-08-12T12:23:31;28.10;63.90
25352;DHT22;13304;48.464;8.712;2023-08-12T12:26:01;27.70;65.30
25352;DHT22;13304;48.464;8.712;2023-08-12T12:28:27;27.40;66.00
25352;DHT22;13304;48.464;8.712;2023-08-12T12:30:53;27.10;68.70
25352;DHT22;13304;48.464;8.712;2023-08-12T12:33:19;26.80;68.70
25352;DHT22;13304;48.464;8.712;2023-08-12T12:35:47;26.60;70.50
25352;DHT22;13304;48.464;8.712;2023-08-12T12:38:13;26.40;71.70
25352;DHT22;13304;48.464;8.712;2023-08-12T12:40:39;26.20;73.30
25352;DHT22;13304;48.464;8.712;2023-08-12T12:43:04;25.90;74.30
25352;DHT22;13304;48.464;8.712;2023-08-12T12:45:30;25.80;75.50
25352;DHT22;13304;48.464;8.712;2023-08-12T12:47:56;25.70;76.20
25352;DHT22;13304;48.464;8.712;2023-08-12T12:50:24;25.60;76.80
25352;DHT22;13304;48.464;8.712;2023-08-12T12:52:50;25.50;78.90
25352;DHT22;13304;48.464;8.712;2023-08-12T12:55:21;25.50;78.90
25352;DHT22;13304;48.464;8.712;2023-08-12T12:57:46;25.40;79.90
25352;DHT22;13304;48.464;8.712;2023-08-12T13:00:12;25.40;80.60
25352;DHT22;13304;48.464;8.712;2023-08-12T13:02:44;25.40;81.60
25352;DHT22;13304;48.464;8.712;2023-08-12T13:05:10;25.50;82.10
25352;DHT22;13304;48.464;8.712;2023-08-12T13:07:35;25.50;82.10
25352;DHT22;13304;48.464;8.712;2023-08-12T13:10:04;25.60;82.60
25352;DHT22;13304;48.464;8.712;2023-08-12T13:12:29;25.60;83.10
25352;DHT22;13304;48.464;8.712;2023-08-12T13:14:58;25.70;82.90
25352;DHT22;13304;48.464;8.712;2023-08-12T13:17:27;25.80;82.90
25352;DHT22;13304;48.464;8.712;2023-08-12T13:19:53;25.90;82.80
25352;DHT22;13304;48.464;8.712;2023-08-12T13:22:21;26.00;82.50
25352;DHT22;13304;48.464;8.712;2023-08-12T13:24:46;26.10;82.30
25352;DHT22;13304;48.464;8.712;2023-08-12T13:27:12;26.20;82.00
25352;DHT22;13304;48.464;8.712;2023-08-12T13:29:38;26.20;81.30
25352;DHT22;13304;48.464;8.712;2023-08-12T13:32:07;26.30;81.10
25352;DHT22;13304;48.464;8.712;2023-08-12T13:34:32;26.40;80.60
25352;DHT22;13304;48.464;8.712;2023-08-12T13:36:59;26.40;80.40
25352;DHT22;13304;48.464;8.712;2023-08-12T13:39:25;26.40;80.00
25352;DHT22;13304;48.464;8.712;2023-08-12T13:41:53;26.50;80.00
25352;DHT22;13304;48.464;8.712;2023-08-12T13:44:22;26.60;80.20
25352;DHT22;13304;48.464;8.712;2023-08-12T13:46:52;26.60;80.60
25352;DHT22;13304;48.464;8.712;2023-08-12T13:49:20;26.70;80.30
25352;DHT22;13304;48.464;8.712;2023-08-12T13:51:46;26.70;79.90
25352;DHT22;13304;48.464;8.712;2023-08-12T13:54:17;26.80;80.00
25352;DHT22;13304;48.464;8.712;2023-08-12T13:56:42;26.80;79.40
25352;DHT22;13304;48.464;8.712;2023-08-12T13:59:08;26.90;79.70
25352;DHT22;13304;48.464;8.712;2023-08-12T14:01:34;27.00;79.20
25352;DHT22;13304;48.464;8.712;2023-08-12T14:03:59;27.00;79.70
25352;DHT22;13304;48.464;8.712;2023-08-12T14:06:28;27.10;80.00
25352;DHT22;13304;48.464;8.712;2023-08-12T14:08:53;27.10;80.10
25352;DHT22;13304;48.464;8.712;2023-08-12T14:11:21;27.10;80.20
25352;DHT22;13304;48.464;8.712;2023-08-12T14:13:47;27.10;79.90
25352;DHT22;13304;48.464;8.712;2023-08-12T14:16:12;27.10;79.70
25352;DHT22;13304;48.464;8.712;2023-08-12T14:18:40;27.10;79.60
25352;DHT22;13304;48.464;8.712;2023-08-12T14:21:08;27.10;79.50
25352;DHT22;13304;48.464;8.712;2023-08-12T14:23:34;27.10;79.60
25352;DHT22;13304;48.464;8.712;2023-08-12T14:26:02;27.10;79.70
25352;DHT22;13304;48.464;8.712;2023-08-12T14:28:28;27.00;79.80
25352;DHT22;13304;48.464;8.712;2023-08-12T14:30:54;27.00;79.50
25352;DHT22;13304;48.464;8.712;2023-08-12T14:33:22;27.10;79.70
25352;DHT22;13304;48.464;8.712;2023-08-12T14:35:51;27.10;80.00
25352;DHT22;13304;48.464;8.712;2023-08-12T14:38:18;27.10;80.10
25352;DHT22;13304;48.464;8.712;2023-08-12T14:40:50;27.10;80.00
25352;DHT22;13304;48.464;8.712;2023-08-12T14:43:16;27.10;78.80
25352;DHT22;13304;48.464;8.712;2023-08-12T14:45:44;27.20;79.40
25352;DHT22;13304;48.464;8.712;2023-08-12T14:48:11;27.20;78.80
25352;DHT22;13304;48.464;8.712;2023-08-12T14:50:39;27.30;79.00
25352;DHT22;13304;48.464;8.712;2023-08-12T14:53:08;27.30;78.50
25352;DHT22;13304;48.464;8.712;2023-08-12T14:55:37;27.30;78.50
25352;DHT22;13304;48.464;8.712;2023-08-12T14:58:05;27.40;78.40
25352;DHT22;13304;48.464;8.712;2023-08-12T15:00:31;27.40;78.50
25352;DHT22;13304;48.464;8.712;2023-08-12T15:02:58;27.50;78.60
25352;DHT22;13304;48.464;8.712;2023-08-12T15:05:26;27.50;78.50
25352;DHT22;13304;48.464;8.712;2023-08-12T15:07:54;27.60;78.50
25352;DHT22;13304;48.464;8.712;2023-08-12T15:10:20;27.60;77.90
25352;DHT22;13304;48.464;8.712;2023-08-12T15:12:45;27.70;77.20
25352;DHT22;13304;48.464;8.712;2023-08-12T15:15:11;27.80;77.70
25352;DHT22;13304;48.464;8.712;2023-08-12T15:17:39;27.90;78.10
25352;DHT22;13304;48.464;8.712;2023-08-12T15:20:05;28.10;77.50
25352;DHT22;13304;48.464;8.712;2023-08-12T15:22:31;28.20;77.40
25352;DHT22;13304;48.464;8.712;2023-08-12T15:24:57;28.40;76.00
25352;DHT22;13304;48.464;8.712;2023-08-12T15:27:23;28.50;74.80
25352;DHT22;13304;48.464;8.712;2023-08-12T15:29:49;28.60;73.60
25352;DHT22;13304;48.464;8.712;2023-08-12T15:32:15;28.60;72.60
25352;DHT22;13304;48.464;8.712;2023-08-12T15:34:40;28.60;70.40